sensor_id;sensor_type;location;lat;lon;timestamp;temperature;humidity
22908;DHT22;11620;50.050;8.690;2024-03-06T00:01:43;6.50;99.90
22908;DHT22;11620;50.050;8.690;2024-03-06T00:04:29;6.40;99.90
22908;DHT22;11620;50.050;8.690;2024-03-06T00:07:16;6.30;99.90
22908;DHT22;11620;50.050;8.690;2024-03-06T00:10:02;6.30;99.90
22908;DHT22;11620;50.050;8.690;2024-03-06T00:12:51;6.20;99.90
22908;DHT22;11620;50.050;8.690;2024-03-06T00:15:37;6.20;99.90
22908;DHT22;11620;50.050;8.690;2024-03-06T00:18:23;6.30;99.90
22908;DHT22;11620;50.050;8.690;2024-03-06T00:21:10;6.30;99.90
22908;DHT22;11620;50.050;8.690;2024-03-06T00:23:56;6.30;99.90
22908;DHT22;11620;50.050;8.690;2024-03-06T00:26:44;6.30;99.90
22908;DHT22;11620;50.050;8.690;2024-03-06T00:29:31;6.30;99.90
22908;DHT22;11620;50.050;8.690;2024-03-06T00:32:17;6.30;99.90
22908;DHT22;11620;50.050;8.690;2024-03-06T00:35:04;6.10;99.90
22908;DHT22;11620;50.050;8.690;2024-03-06T00:37:52;6.00;99.90
22908;DHT22;11620;50.050;8.690;2024-03-06T00:40:39;6.00;99.90
22908;DHT22;11620;50.050;8.690;2024-03-06T00:43:25;6.00;99.90
22908;DHT22;11620;50.050;8.690;2024-03-06T00:46:12;6.00;99.90
22908;DHT22;11620;50.050;8.690;2024-03-06T00:48:58;5.90;99.90
22908;DHT22;11620;50.050;8.690;2024-03-06T00:51:44;5.90;99.90
22908;DHT22;11620;50.050;8.690;2024-03-06T00:54:31;5.90;99.90
22908;DHT22;11620;50.050;8.690;2024-03-06T00:57:17;5.90;99.90
22908;DHT22;11620;50.050;8.690;2024-03-06T01:00:04;6.00;99.90
22908;DHT22;11620;50.050;8.690;2024-03-06T01:02:56;5.90;99.90
22908;DHT22;11620;50.050;8.690;2024-03-06T01:05:42;5.90;99.90
22908;DHT22;11620;50.050;8.690;2024-03-06T01:08:29;5.90;99.90
22908;DHT22;11620;50.050;8.690;2024-03-06T01:11:16;5.90;99.90
22908;DHT22;11620;50.050;8.690;2024-03-06T01:14:03;5.80;99.90
22908;DHT22;11620;50.050;8.690;2024-03-06T01:16:49;5.80;99.90
22908;DHT22;11620;50.050;8.690;2024-03-06T01:19:36;5.70;99.90
22908;DHT22;11620;50.050;8.690;2024-03-06T01:22:22;5.80;99.90
22908;DHT22;11620;50.050;8.690;2024-03-06T01:25:21;5.70;99.90
22908;DHT22;11620;50.050;8.690;2024-03-06T01:28:07;5.70;99.90
22908;DHT22;11620;50.050;8.690;2024-03-06T01:30:54;5.60;99.90
22908;DHT22;11620;50.050;8.690;2024-03-06T01:33:40;5.60;99.90
22908;DHT22;11620;50.050;8.690;2024-03-06T01:36:26;5.50;99.90
22908;DHT22;11620;50.050;8.690;2024-03-06T01:39:13;5.40;99.90
22908;DHT22;11620;50.050;8.690;2024-03-06T01:41:59;5.40;99.90
22908;DHT22;11620;50.050;8.690;2024-03-06T01:44:46;5.20;99.90
22908;DHT22;11620;50.050;8.690;2024-03-06T01:47:32;5.20;99.90
22908;DHT22;11620;50.050;8.690;2024-03-06T01:50:18;5.20;99.90
22908;DHT22;11620;50.050;8.690;2024-03-06T01:53:05;5.20;99.90
22908;DHT22;11620;50.050;8.690;2024-03-06T01:55:51;5.30;99.90
22908;DHT22;11620;50.050;8.690;2024-03-06T01:58:39;5.20;99.90
22908;DHT22;11620;50.050;8.690;2024-03-06T02:01:25;5.20;99.90
22908;DHT22;11620;50.050;8.690;2024-03-06T02:04:12;5.20;99.90
22908;DHT22;11620;50.050;8.690;2024-03-06T02:06:59;5.20;99.90
22908;DHT22;11620;50.050;8.690;2024-03-06T02:09:46;5.10;99.90
22908;DHT22;11620;50.050;8.690;2024-03-06T02:12:32;5.10;99.90
22908;DHT22;11620;50.050;8.690;2024-03-06T02:15:19;5.10;99.90
22908;DHT22;11620;50.050;8.690;2024-03-06T02:18:06;5.20;99.90
22908;DHT22;11620;50.050;8.690;2024-03-06T02:20:52;5.10;99.90
22908;DHT22;11620;50.050;8.690;2024-03-06T02:23:38;5.10;99.90
22908;DHT22;11620;50.050;8.690;2024-03-06T02:26:25;5.10;99.90
22908;DHT22;11620;50.050;8.690;2024-03-06T02:29:11;5.00;99.90
22908;DHT22;11620;50.050;8.690;2024-03-06T02:31:58;5.00;99.90
22908;DHT22;11620;50.050;8.690;2024-03-06T02:34:44;5.00;99.90
22908;DHT22;11620;50.050;8.690;2024-03-06T02:37:30;5.00;99.90
22908;DHT22;11620;50.050;8.690;2024-03-06T02:40:19;5.00;99.90
22908;DHT22;11620;50.050;8.690;2024-03-06T02:43:07;5.00;99.90
22908;DHT22;11620;50.050;8.690;2024-03-06T02:45:53;5.00;99.90
22908;DHT22;11620;50.050;8.690;2024-03-06T02:48:39;5.00;99.90
22908;DHT22;11620;50.050;8.690;2024-03-06T02:51:26;5.00;99.90
22908;DHT22;11620;50.050;8.690;2024-03-06T02:54:12;5.00;99.90
22908;DHT22;11620;50.050;8.690;2024-03-06T02:56:58;4.90;99.90
22908;DHT22;11620;50.050;8.690;2024-03-06T02:59:45;4.90;99.90
22908;DHT22;11620;50.050;8.690;2024-03-06T03:02:31;4.90;99.90
22908;DHT22;11620;50.050;8.690;2024-03-06T03:05:18;4.80;99.90
22908;DHT22;11620;50.050;8.690;2024-03-06T03:08:04;4.80;99.90
22908;DHT22;11620;50.050;8.690;2024-03-06T03:10:51;4.80;99.90
22908;DHT22;11620;50.050;8.690;2024-03-06T03:13:38;4.80;99.90
22908;DHT22;11620;50.050;8.690;2024-03-06T03:16:24;4.70;99.90
22908;DHT22;11620;50.050;8.690;2024-03-06T03:19:10;4.70;99.90
22908;DHT22;11620;50.050;8.690;2024-03-06T03:21:57;4.60;99.90
22908;DHT22;11620;50.050;8.690;2024-03-06T03:24:44;4.60;99.90
22908;DHT22;11620;50.050;8.690;2024-03-06T03:27:30;4.50;99.90
22908;DHT22;11620;50.050;8.690;2024-03-06T03:30:17;4.60;99.90
22908;DHT22;11620;50.050;8.690;2024-03-06T03:33:06;4.50;99.90
22908;DHT22;11620;50.050;8.690;2024-03-06T03:35:53;4.50;99.90
22908;DHT22;11620;50.050;8.690;2024-03-06T03:38:39;4.50;99.90
22908;DHT22;11620;50.050;8.690;2024-03-06T03:41:28;4.40;99.90
22908;DHT22;11620;50.050;8.690;2024-03-06T03:44:16;4.40;99.90
22908;DHT22;11620;50.050;8.690;2024-03-06T03:47:02;4.40;99.90
22908;DHT22;11620;50.050;8.690;2024-03-06T03:49:49;4.40;99.90
22908;DHT22;11620;50.050;8.690;2024-03-06T03:52:35;4.40;99.90
22908;DHT22;11620;50.050;8.690;2024-03-06T03:55:21;4.30;99.90
22908;DHT22;11620;50.050;8.690;2024-03-06T03:58:08;4.30;99.90
22908;DHT22;11620;50.050;8.690;2024-03-06T04:00:54;4.30;99.90
22908;DHT22;11620;50.050;8.690;2024-03-06T04:03:41;4.30;99.90
22908;DHT22;11620;50.050;8.690;2024-03-06T04:06:28;4.20;99.90
22908;DHT22;11620;50.050;8.690;2024-03-06T04:09:15;4.20;99.90
22908;DHT22;11620;50.050;8.690;2024-03-06T04:12:04;4.20;99.90
22908;DHT22;11620;50.050;8.690;2024-03-06T04:14:51;4.20;99.90
22908;DHT22;11620;50.050;8.690;2024-03-06T04:17:37;4.20;99.90
22908;DHT22;11620;50.050;8.690;2024-03-06T04:20:23;4.20;99.90
22908;DHT22;11620;50.050;8.690;2024-03-06T04:23:10;4.10;99.90
22908;DHT22;11620;50.050;8.690;2024-03-06T04:25:56;4.10;99.90
22908;DHT22;11620;50.050;8.690;2024-03-06T04:28:42;4.10;99.90
22908;DHT22;11620;50.050;8.690;2024-03-06T04:31:29;4.10;99.90
22908;DHT22;11620;50.050;8.690;2024-03-06T04:34:16;4.10;99.90
22908;DHT22;11620;50.050;8.690;2024-03-06T04:37:02;4.10;99.90
22908;DHT22;11620;50.050;8.690;2024-03-06T04:39:48;4.10;99.90
22908;DHT22;11620;50.050;8.690;2024-03-06T04:42:35;4.10;99.90
22908;DHT22;11620;50.050;8.690;2024-03-06T04:45:24;4.10;99.90
22908;DHT22;11620;50.050;8.690;2024-03-06T04:48:10;4.10;99.90
22908;DHT22;11620;50.050;8.690;2024-03-06T04:50:57;4.10;99.90
22908;DHT22;11620;50.050;8.690;2024-03-06T04:53:43;4.10;99.90
22908;DHT22;11620;50.050;8.690;2024-03-06T04:56:29;4.10;99.90
22908;DHT22;11620;50.050;8.690;2024-03-06T04:59:16;4.10;99.90
22908;DHT22;11620;50.050;8.690;2024-03-06T05:02:02;4.10;99.90
22908;DHT22;11620;50.050;8.690;2024-03-06T05:04:49;4.10;99.90
22908;DHT22;11620;50.050;8.690;2024-03-06T05:07:35;4.00;99.90
22908;DHT22;11620;50.050;8.690;2024-03-06T05:10:22;4.00;99.90
22908;DHT22;11620;50.050;8.690;2024-03-06T05:13:08;4.00;99.90
22908;DHT22;11620;50.050;8.690;2024-03-06T05:15:54;4.00;99.90
22908;DHT22;11620;50.050;8.690;2024-03-06T05:18:41;4.00;99.90
22908;DHT22;11620;50.050;8.690;2024-03-06T05:21:27;4.00;99.90
22908;DHT22;11620;50.050;8.690;2024-03-06T05:24:13;4.00;99.90
22908;DHT22;11620;50.050;8.690;2024-03-06T05:27:00;4.10;99.90
22908;DHT22;11620;50.050;8.690;2024-03-06T05:29:46;4.00;99.90
22908;DHT22;11620;50.050;8.690;2024-03-06T05:32:33;4.00;99.90
22908;DHT22;11620;50.050;8.690;2024-03-06T05:35:19;4.00;99.90
22908;DHT22;11620;50.050;8.690;2024-03-06T05:38:05;4.00;99.90
22908;DHT22;11620;50.050;8.690;2024-03-06T05:40:53;4.00;99.90
22908;DHT22;11620;50.050;8.690;2024-03-06T05:43:40;4.00;99.90
22908;DHT22;11620;50.050;8.690;2024-03-06T05:46:27;4.00;99.90
22908;DHT22;11620;50.050;8.690;2024-03-06T05:49:13;4.00;99.90
22908;DHT22;11620;50.050;8.690;2024-03-06T05:52:00;4.00;99.90
22908;DHT22;11620;50.050;8.690;2024-03-06T05:54:46;4.00;99.90
22908;DHT22;11620;50.050;8.690;2024-03-06T05:57:32;4.00;99.90
22908;DHT22;11620;50.050;8.690;2024-03-06T06:00:19;3.90;99.90
22908;DHT22;11620;50.050;8.690;2024-03-06T06:03:08;3.90;99.90
22908;DHT22;11620;50.050;8.690;2024-03-06T06:05:58;3.90;99.90
22908;DHT22;11620;50.050;8.690;2024-03-06T06:08:45;3.90;99.90
22908;DHT22;11620;50.050;8.690;2024-03-06T06:11:32;3.90;99.90
22908;DHT22;11620;50.050;8.690;2024-03-06T06:14:22;3.90;99.90
22908;DHT22;11620;50.050;8.690;2024-03-06T06:17:08;3.90;99.90
22908;DHT22;11620;50.050;8.690;2024-03-06T06:19:54;4.00;99.90
22908;DHT22;11620;50.050;8.690;2024-03-06T06:22:41;4.00;99.90
22908;DHT22;11620;50.050;8.690;2024-03-06T06:25:28;4.00;99.90
22908;DHT22;11620;50.050;8.690;2024-03-06T06:28:14;4.00;99.90
22908;DHT22;11620;50.050;8.690;2024-03-06T06:31:00;4.00;99.90
22908;DHT22;11620;50.050;8.690;2024-03-06T06:33:47;4.00;99.90
22908;DHT22;11620;50.050;8.690;2024-03-06T06:36:33;4.10;99.90
22908;DHT22;11620;50.050;8.690;2024-03-06T06:39:19;4.10;99.90
22908;DHT22;11620;50.050;8.690;2024-03-06T06:42:06;4.10;99.90
22908;DHT22;11620;50.050;8.690;2024-03-06T06:44:52;4.10;99.90
22908;DHT22;11620;50.050;8.690;2024-03-06T06:47:39;4.20;99.90
22908;DHT22;11620;50.050;8.690;2024-03-06T06:50:25;4.20;99.90
22908;DHT22;11620;50.050;8.690;2024-03-06T06:53:13;4.30;99.90
22908;DHT22;11620;50.050;8.690;2024-03-06T06:56:00;4.30;99.90
22908;DHT22;11620;50.050;8.690;2024-03-06T06:58:46;4.30;99.90
22908;DHT22;11620;50.050;8.690;2024-03-06T07:01:32;4.40;99.90
22908;DHT22;11620;50.050;8.690;2024-03-06T07:04:19;4.40;99.90
22908;DHT22;11620;50.050;8.690;2024-03-06T07:07:06;4.50;99.90
22908;DHT22;11620;50.050;8.690;2024-03-06T07:09:52;4.50;99.90
22908;DHT22;11620;50.050;8.690;2024-03-06T07:12:38;4.50;99.90
22908;DHT22;11620;50.050;8.690;2024-03-06T07:15:25;4.50;99.90
22908;DHT22;11620;50.050;8.690;2024-03-06T07:18:11;4.50;99.90
22908;DHT22;11620;50.050;8.690;2024-03-06T07:20:57;4.40;99.90
22908;DHT22;11620;50.050;8.690;2024-03-06T07:23:44;4.50;99.90
22908;DHT22;11620;50.050;8.690;2024-03-06T07:26:34;4.40;99.90
22908;DHT22;11620;50.050;8.690;2024-03-06T07:29:20;4.50;99.90
22908;DHT22;11620;50.050;8.690;2024-03-06T07:32:06;4.60;99.90
22908;DHT22;11620;50.050;8.690;2024-03-06T07:34:53;4.50;99.90
22908;DHT22;11620;50.050;8.690;2024-03-06T07:37:39;4.70;99.90
22908;DHT22;11620;50.050;8.690;2024-03-06T07:40:25;5.00;99.90
22908;DHT22;11620;50.050;8.690;2024-03-06T07:43:12;5.20;99.90
22908;DHT22;11620;50.050;8.690;2024-03-06T07:46:00;5.40;99.90
22908;DHT22;11620;50.050;8.690;2024-03-06T07:48:46;5.60;99.90
22908;DHT22;11620;50.050;8.690;2024-03-06T07:51:33;5.70;99.90
22908;DHT22;11620;50.050;8.690;2024-03-06T07:54:20;5.70;99.90
22908;DHT22;11620;50.050;8.690;2024-03-06T07:57:06;5.70;99.90
22908;DHT22;11620;50.050;8.690;2024-03-06T07:59:52;5.70;99.90
22908;DHT22;11620;50.050;8.690;2024-03-06T08:02:41;5.70;99.90
22908;DHT22;11620;50.050;8.690;2024-03-06T08:05:30;5.70;99.90
22908;DHT22;11620;50.050;8.690;2024-03-06T08:08:16;5.80;99.90
22908;DHT22;11620;50.050;8.690;2024-03-06T08:11:03;5.90;99.90
22908;DHT22;11620;50.050;8.690;2024-03-06T08:13:49;5.90;99.90
22908;DHT22;11620;50.050;8.690;2024-03-06T08:16:36;5.90;99.90
22908;DHT22;11620;50.050;8.690;2024-03-06T08:19:23;6.00;99.90
22908;DHT22;11620;50.050;8.690;2024-03-06T08:22:11;6.00;99.90
22908;DHT22;11620;50.050;8.690;2024-03-06T08:24:57;6.00;99.90
22908;DHT22;11620;50.050;8.690;2024-03-06T08:27:43;6.00;99.90
22908;DHT22;11620;50.050;8.690;2024-03-06T08:30:30;6.00;99.90
22908;DHT22;11620;50.050;8.690;2024-03-06T08:33:19;6.10;99.90
22908;DHT22;11620;50.050;8.690;2024-03-06T08:36:07;6.20;99.90
22908;DHT22;11620;50.050;8.690;2024-03-06T08:38:53;6.20;99.90
22908;DHT22;11620;50.050;8.690;2024-03-06T08:41:43;6.30;99.90
22908;DHT22;11620;50.050;8.690;2024-03-06T08:44:29;6.30;99.90
22908;DHT22;11620;50.050;8.690;2024-03-06T08:47:16;6.30;99.90
22908;DHT22;11620;50.050;8.690;2024-03-06T08:50:03;6.40;99.90
22908;DHT22;11620;50.050;8.690;2024-03-06T08:52:52;6.50;99.90
22908;DHT22;11620;50.050;8.690;2024-03-06T08:55:38;6.50;99.90
22908;DHT22;11620;50.050;8.690;2024-03-06T08:58:24;6.60;99.90
22908;DHT22;11620;50.050;8.690;2024-03-06T09:01:11;6.60;99.90
22908;DHT22;11620;50.050;8.690;2024-03-06T09:03:57;6.70;99.90
22908;DHT22;11620;50.050;8.690;2024-03-06T09:06:43;6.80;99.90
22908;DHT22;11620;50.050;8.690;2024-03-06T09:09:30;6.90;99.90
22908;DHT22;11620;50.050;8.690;2024-03-06T09:12:16;7.10;99.90
22908;DHT22;11620;50.050;8.690;2024-03-06T09:15:03;7.20;99.90
22908;DHT22;11620;50.050;8.690;2024-03-06T09:17:50;7.40;99.90
22908;DHT22;11620;50.050;8.690;2024-03-06T09:20:36;7.50;99.90
22908;DHT22;11620;50.050;8.690;2024-03-06T09:23:23;7.50;99.90
22908;DHT22;11620;50.050;8.690;2024-03-06T09:26:09;7.60;99.90
22908;DHT22;11620;50.050;8.690;2024-03-06T09:28:56;7.60;99.90
22908;DHT22;11620;50.050;8.690;2024-03-06T09:31:42;7.70;99.90
22908;DHT22;11620;50.050;8.690;2024-03-06T09:34:29;7.70;99.90
22908;DHT22;11620;50.050;8.690;2024-03-06T09:37:15;7.70;99.90
22908;DHT22;11620;50.050;8.690;2024-03-06T09:40:02;7.80;99.90
22908;DHT22;11620;50.050;8.690;2024-03-06T09:42:50;7.70;99.90
22908;DHT22;11620;50.050;8.690;2024-03-06T09:45:36;7.70;99.90
22908;DHT22;11620;50.050;8.690;2024-03-06T09:48:22;7.80;99.90
22908;DHT22;11620;50.050;8.690;2024-03-06T09:51:09;7.80;99.90
22908;DHT22;11620;50.050;8.690;2024-03-06T09:53:55;7.90;99.90
22908;DHT22;11620;50.050;8.690;2024-03-06T09:56:42;8.10;99.90
22908;DHT22;11620;50.050;8.690;2024-03-06T09:59:29;8.20;99.90
22908;DHT22;11620;50.050;8.690;2024-03-06T10:02:36;8.30;99.90
22908;DHT22;11620;50.050;8.690;2024-03-06T10:05:24;8.40;99.90
22908;DHT22;11620;50.050;8.690;2024-03-06T10:08:10;8.50;99.90
22908;DHT22;11620;50.050;8.690;2024-03-06T10:10:57;8.70;99.90
22908;DHT22;11620;50.050;8.690;2024-03-06T10:13:43;8.80;99.90
22908;DHT22;11620;50.050;8.690;2024-03-06T10:16:29;8.90;99.90
22908;DHT22;11620;50.050;8.690;2024-03-06T10:19:19;9.00;99.90
22908;DHT22;11620;50.050;8.690;2024-03-06T10:22:07;9.10;99.90
22908;DHT22;11620;50.050;8.690;2024-03-06T10:24:57;9.20;99.90
22908;DHT22;11620;50.050;8.690;2024-03-06T10:27:43;9.30;99.90
22908;DHT22;11620;50.050;8.690;2024-03-06T10:30:29;9.40;99.90
22908;DHT22;11620;50.050;8.690;2024-03-06T10:33:18;9.50;99.90
22908;DHT22;11620;50.050;8.690;2024-03-06T10:36:10;9.60;99.90
22908;DHT22;11620;50.050;8.690;2024-03-06T10:39:00;9.70;99.90
22908;DHT22;11620;50.050;8.690;2024-03-06T10:41:57;9.80;99.90
22908;DHT22;11620;50.050;8.690;2024-03-06T10:44:53;9.90;99.90
22908;DHT22;11620;50.050;8.690;2024-03-06T10:47:45;10.60;99.90
22908;DHT22;11620;50.050;8.690;2024-03-06T10:50:33;11.30;99.90
22908;DHT22;11620;50.050;8.690;2024-03-06T10:53:21;11.20;99.90
22908;DHT22;11620;50.050;8.690;2024-03-06T10:56:10;11.30;99.90
22908;DHT22;11620;50.050;8.690;2024-03-06T10:58:57;11.60;99.90
22908;DHT22;11620;50.050;8.690;2024-03-06T11:01:44;11.60;99.90
22908;DHT22;11620;50.050;8.690;2024-03-06T11:04:32;11.50;99.90
22908;DHT22;11620;50.050;8.690;2024-03-06T11:07:21;11.30;99.90
22908;DHT22;11620;50.050;8.690;2024-03-06T11:10:08;11.10;99.90
22908;DHT22;11620;50.050;8.690;2024-03-06T11:13:02;10.90;99.90
22908;DHT22;11620;50.050;8.690;2024-03-06T11:15:51;10.80;99.90
22908;DHT22;11620;50.050;8.690;2024-03-06T11:21:27;10.70;99.90
22908;DHT22;11620;50.050;8.690;2024-03-06T11:27:02;10.60;99.90
22908;DHT22;11620;50.050;8.690;2024-03-06T11:30:07;10.80;99.90
22908;DHT22;11620;50.050;8.690;2024-03-06T11:33:00;10.90;99.90
22908;DHT22;11620;50.050;8.690;2024-03-06T11:39:05;10.80;99.90
22908;DHT22;11620;50.050;8.690;2024-03-06T11:41:57;10.80;99.90
22908;DHT22;11620;50.050;8.690;2024-03-06T11:45:15;11.20;99.90
22908;DHT22;11620;50.050;8.690;2024-03-06T11:48:03;11.20;99.90
22908;DHT22;11620;50.050;8.690;2024-03-06T11:50:51;11.50;99.90
22908;DHT22;11620;50.050;8.690;2024-03-06T11:53:37;11.70;99.90
22908;DHT22;11620;50.050;8.690;2024-03-06T11:56:25;11.70;99.90
22908;DHT22;11620;50.050;8.690;2024-03-06T11:59:11;11.70;99.90
22908;DHT22;11620;50.050;8.690;2024-03-06T12:01:59;11.70;99.90
22908;DHT22;11620;50.050;8.690;2024-03-06T12:04:49;11.80;99.90
22908;DHT22;11620;50.050;8.690;2024-03-06T12:07:48;11.60;99.90
22908;DHT22;11620;50.050;8.690;2024-03-06T12:10:37;11.60;99.90
22908;DHT22;11620;50.050;8.690;2024-03-06T12:13:24;11.70;99.90
22908;DHT22;11620;50.050;8.690;2024-03-06T12:16:11;11.60;99.90
22908;DHT22;11620;50.050;8.690;2024-03-06T12:18:58;11.70;99.90
22908;DHT22;11620;50.050;8.690;2024-03-06T12:21:47;11.70;99.90
22908;DHT22;11620;50.050;8.690;2024-03-06T12:24:34;11.60;99.90
22908;DHT22;11620;50.050;8.690;2024-03-06T12:27:22;11.50;99.90
22908;DHT22;11620;50.050;8.690;2024-03-06T12:30:09;11.40;99.90
22908;DHT22;11620;50.050;8.690;2024-03-06T12:32:59;11.40;99.90
22908;DHT22;11620;50.050;8.690;2024-03-06T12:35:46;11.30;99.90
22908;DHT22;11620;50.050;8.690;2024-03-06T12:38:34;11.20;99.90
22908;DHT22;11620;50.050;8.690;2024-03-06T12:41:20;11.10;99.90
22908;DHT22;11620;50.050;8.690;2024-03-06T12:44:07;10.90;99.90
22908;DHT22;11620;50.050;8.690;2024-03-06T12:46:53;10.80;99.90
22908;DHT22;11620;50.050;8.690;2024-03-06T12:49:40;10.60;99.90
22908;DHT22;11620;50.050;8.690;2024-03-06T12:52:26;10.50;99.90
22908;DHT22;11620;50.050;8.690;2024-03-06T12:55:12;10.50;99.90
22908;DHT22;11620;50.050;8.690;2024-03-06T12:58:00;10.50;99.90
22908;DHT22;11620;50.050;8.690;2024-03-06T13:00:47;10.50;99.90
22908;DHT22;11620;50.050;8.690;2024-03-06T13:03:33;10.50;99.90
22908;DHT22;11620;50.050;8.690;2024-03-06T13:06:20;10.50;99.90
22908;DHT22;11620;50.050;8.690;2024-03-06T13:09:07;10.40;99.90
22908;DHT22;11620;50.050;8.690;2024-03-06T13:11:54;10.50;99.90
22908;DHT22;11620;50.050;8.690;2024-03-06T13:14:40;10.50;99.90
22908;DHT22;11620;50.050;8.690;2024-03-06T13:17:26;10.40;99.90
22908;DHT22;11620;50.050;8.690;2024-03-06T13:20:15;10.40;99.90
22908;DHT22;11620;50.050;8.690;2024-03-06T13:23:01;10.40;99.90
22908;DHT22;11620;50.050;8.690;2024-03-06T13:25:47;10.50;99.90
22908;DHT22;11620;50.050;8.690;2024-03-06T13:28:34;10.40;99.90
22908;DHT22;11620;50.050;8.690;2024-03-06T13:31:20;10.40;99.90
22908;DHT22;11620;50.050;8.690;2024-03-06T13:34:06;10.50;99.90
22908;DHT22;11620;50.050;8.690;2024-03-06T13:36:53;10.50;99.90
22908;DHT22;11620;50.050;8.690;2024-03-06T13:39:40;10.50;99.90
22908;DHT22;11620;50.050;8.690;2024-03-06T13:42:27;10.50;99.90
22908;DHT22;11620;50.050;8.690;2024-03-06T13:45:13;10.40;99.90
22908;DHT22;11620;50.050;8.690;2024-03-06T13:48:00;10.30;99.90
22908;DHT22;11620;50.050;8.690;2024-03-06T13:50:46;10.40;99.90
22908;DHT22;11620;50.050;8.690;2024-03-06T13:53:33;10.40;99.90
22908;DHT22;11620;50.050;8.690;2024-03-06T13:56:19;10.30;99.90
22908;DHT22;11620;50.050;8.690;2024-03-06T13:59:05;10.30;99.90
22908;DHT22;11620;50.050;8.690;2024-03-06T14:01:52;10.40;99.90
22908;DHT22;11620;50.050;8.690;2024-03-06T14:04:39;10.50;99.90
22908;DHT22;11620;50.050;8.690;2024-03-06T14:07:25;10.60;99.90
22908;DHT22;11620;50.050;8.690;2024-03-06T14:10:12;10.60;99.90
22908;DHT22;11620;50.050;8.690;2024-03-06T14:13:00;10.60;99.90
22908;DHT22;11620;50.050;8.690;2024-03-06T14:15:46;10.50;99.90
22908;DHT22;11620;50.050;8.690;2024-03-06T14:18:34;10.50;99.90
22908;DHT22;11620;50.050;8.690;2024-03-06T14:21:20;10.50;99.90
22908;DHT22;11620;50.050;8.690;2024-03-06T14:24:07;10.40;99.90
22908;DHT22;11620;50.050;8.690;2024-03-06T14:26:53;10.50;99.90
22908;DHT22;11620;50.050;8.690;2024-03-06T14:29:39;10.30;99.90
22908;DHT22;11620;50.050;8.690;2024-03-06T14:32:26;10.40;99.90
22908;DHT22;11620;50.050;8.690;2024-03-06T14:35:12;10.50;99.90
22908;DHT22;11620;50.050;8.690;2024-03-06T14:37:58;10.40;99.90
22908;DHT22;11620;50.050;8.690;2024-03-06T14:40:46;10.40;99.90
22908;DHT22;11620;50.050;8.690;2024-03-06T14:43:32;10.40;99.90
22908;DHT22;11620;50.050;8.690;2024-03-06T14:46:24;10.40;99.90
22908;DHT22;11620;50.050;8.690;2024-03-06T14:49:10;10.30;99.90
22908;DHT22;11620;50.050;8.690;2024-03-06T14:51:57;10.30;99.90
22908;DHT22;11620;50.050;8.690;2024-03-06T14:54:43;10.30;99.90
22908;DHT22;11620;50.050;8.690;2024-03-06T14:57:30;10.20;99.90
22908;DHT22;11620;50.050;8.690;2024-03-06T15:00:16;10.10;99.90
22908;DHT22;11620;50.050;8.690;2024-03-06T15:03:07;10.20;99.90
22908;DHT22;11620;50.050;8.690;2024-03-06T15:05:53;10.20;99.90
22908;DHT22;11620;50.050;8.690;2024-03-06T15:08:40;10.20;99.90
22908;DHT22;11620;50.050;8.690;2024-03-06T15:11:26;10.20;99.90
22908;DHT22;11620;50.050;8.690;2024-03-06T15:14:15;10.20;99.90
22908;DHT22;11620;50.050;8.690;2024-03-06T15:17:02;10.20;99.90
22908;DHT22;11620;50.050;8.690;2024-03-06T15:19:48;10.20;99.90
22908;DHT22;11620;50.050;8.690;2024-03-06T15:22:35;10.20;99.90
22908;DHT22;11620;50.050;8.690;2024-03-06T15:25:27;10.20;99.90
22908;DHT22;11620;50.050;8.690;2024-03-06T15:28:14;10.10;99.90
22908;DHT22;11620;50.050;8.690;2024-03-06T15:31:00;10.10;99.90
22908;DHT22;11620;50.050;8.690;2024-03-06T15:33:49;10.20;99.90
22908;DHT22;11620;50.050;8.690;2024-03-06T15:36:36;10.20;99.90
22908;DHT22;11620;50.050;8.690;2024-03-06T15:39:23;10.20;99.90
22908;DHT22;11620;50.050;8.690;2024-03-06T15:42:10;10.10;99.90
22908;DHT22;11620;50.050;8.690;2024-03-06T15:44:56;10.00;99.90
22908;DHT22;11620;50.050;8.690;2024-03-06T15:47:42;9.90;99.90
22908;DHT22;11620;50.050;8.690;2024-03-06T15:50:29;9.80;99.90
22908;DHT22;11620;50.050;8.690;2024-03-06T15:53:15;9.80;99.90
22908;DHT22;11620;50.050;8.690;2024-03-06T15:56:02;9.80;99.90
22908;DHT22;11620;50.050;8.690;2024-03-06T15:58:48;9.80;99.90
22908;DHT22;11620;50.050;8.690;2024-03-06T16:01:35;9.80;99.90
22908;DHT22;11620;50.050;8.690;2024-03-06T16:04:21;9.70;99.90
22908;DHT22;11620;50.050;8.690;2024-03-06T16:07:07;9.70;99.90
22908;DHT22;11620;50.050;8.690;2024-03-06T16:09:55;9.60;99.90
22908;DHT22;11620;50.050;8.690;2024-03-06T16:12:42;9.60;99.90
22908;DHT22;11620;50.050;8.690;2024-03-06T16:15:28;9.50;99.90
22908;DHT22;11620;50.050;8.690;2024-03-06T16:18:15;9.60;99.90
22908;DHT22;11620;50.050;8.690;2024-03-06T16:21:02;9.50;99.90
22908;DHT22;11620;50.050;8.690;2024-03-06T16:23:48;9.50;99.90
22908;DHT22;11620;50.050;8.690;2024-03-06T16:26:35;9.50;99.90
22908;DHT22;11620;50.050;8.690;2024-03-06T16:29:22;9.50;99.90
22908;DHT22;11620;50.050;8.690;2024-03-06T16:32:09;9.50;99.90
22908;DHT22;11620;50.050;8.690;2024-03-06T16:34:55;9.40;99.90
22908;DHT22;11620;50.050;8.690;2024-03-06T16:37:42;9.30;99.90
22908;DHT22;11620;50.050;8.690;2024-03-06T16:40:28;9.20;99.90
22908;DHT22;11620;50.050;8.690;2024-03-06T16:43:15;9.20;99.90
22908;DHT22;11620;50.050;8.690;2024-03-06T16:46:02;9.20;99.90
22908;DHT22;11620;50.050;8.690;2024-03-06T16:48:49;9.10;99.90
22908;DHT22;11620;50.050;8.690;2024-03-06T16:51:36;9.00;99.90
22908;DHT22;11620;50.050;8.690;2024-03-06T16:54:22;9.00;99.90
22908;DHT22;11620;50.050;8.690;2024-03-06T16:57:08;9.00;99.90
22908;DHT22;11620;50.050;8.690;2024-03-06T16:59:56;8.90;99.90
22908;DHT22;11620;50.050;8.690;2024-03-06T17:02:43;8.90;99.90
22908;DHT22;11620;50.050;8.690;2024-03-06T17:05:30;8.80;99.90
22908;DHT22;11620;50.050;8.690;2024-03-06T17:08:17;8.80;99.90
22908;DHT22;11620;50.050;8.690;2024-03-06T17:11:03;8.80;99.90
22908;DHT22;11620;50.050;8.690;2024-03-06T17:13:30;8.80;99.90
22908;DHT22;11620;50.050;8.690;2024-03-06T17:15:56;8.80;99.90
22908;DHT22;11620;50.050;8.690;2024-03-06T17:18:22;8.70;99.90
22908;DHT22;11620;50.050;8.690;2024-03-06T17:20:48;8.60;99.90
22908;DHT22;11620;50.050;8.690;2024-03-06T17:23:14;8.60;99.90
22908;DHT22;11620;50.050;8.690;2024-03-06T17:25:41;8.60;99.90
22908;DHT22;11620;50.050;8.690;2024-03-06T17:28:07;8.60;99.90
22908;DHT22;11620;50.050;8.690;2024-03-06T17:30:35;8.60;99.90
22908;DHT22;11620;50.050;8.690;2024-03-06T17:33:01;8.50;99.90
22908;DHT22;11620;50.050;8.690;2024-03-06T17:35:29;8.50;99.90
22908;DHT22;11620;50.050;8.690;2024-03-06T17:37:55;8.40;99.90
22908;DHT22;11620;50.050;8.690;2024-03-06T17:40:21;8.40;99.90
22908;DHT22;11620;50.050;8.690;2024-03-06T17:42:47;8.40;99.90
22908;DHT22;11620;50.050;8.690;2024-03-06T17:45:13;8.30;99.90
22908;DHT22;11620;50.050;8.690;2024-03-06T17:47:39;8.20;99.90
22908;DHT22;11620;50.050;8.690;2024-03-06T17:50:05;8.20;99.90
22908;DHT22;11620;50.050;8.690;2024-03-06T17:52:36;8.20;99.90